Franktown, Colorado
Current Conditions -  °F | °C
As of 3:53 PM on Tuesday 21 Oct 2014 (Local Time) from KAPA Reporting Station
Light Rain Light Rain  
Wind Chill: 65°   Ceiling: 9000
Heat Index: 65°   Visibility: 10mi
Dew Point: 45°   Wind: 9mph
Humidity: 48%   Direction: 330°NNW
Pressure: 29.95"   Gusts: NA
Location:  39.39°N, 104.75°W
Report Text: KAPA 212153Z 33008KT 10SM -RA SCT070 BKN090 BKN200 18/07 A2995 RMK AO2 RAB28 SLP099 VIRGA S-W CB DSNT SW-W MOV NE TCU DSNT E AND W-NW P0000 T01830072
Loading
Personal Weather Stations






























Interactive Weather Map
Tropical Storm Tracking
New forecast layout! Learn more

10-Day Weather Forecast

Advertisements
Track Severe Weather on mobile